sensor_id;sensor_type;location;lat;lon;timestamp;pressure;altitude;pressure_sealevel;temperature;humidity
5455;BME280;2750;49.050;9.250;2023-03-14T00:01:08;97104.22;;;12.57;100.00
5455;BME280;2750;49.050;9.250;2023-03-14T00:06:10;97087.13;;;12.43;100.00
5455;BME280;2750;49.050;9.250;2023-03-14T00:11:16;97085.47;;;12.42;100.00
5455;BME280;2750;49.050;9.250;2023-03-14T00:16:19;97114.56;;;12.88;98.69
5455;BME280;2750;49.050;9.250;2023-03-14T00:21:20;97113.03;;;12.86;98.01
5455;BME280;2750;49.050;9.250;2023-03-14T00:26:23;97123.66;;;13.15;96.51
5455;BME280;2750;49.050;9.250;2023-03-14T00:31:25;97128.63;;;13.18;95.72
5455;BME280;2750;49.050;9.250;2023-03-14T00:36:26;97127.56;;;12.88;97.02
5455;BME280;2750;49.050;9.250;2023-03-14T00:41:29;97130.75;;;12.71;97.84
5455;BME280;2750;49.050;9.250;2023-03-14T00:46:31;97121.28;;;12.70;97.97
5455;BME280;2750;49.050;9.250;2023-03-14T00:51:32;97118.84;;;12.58;99.06
5455;BME280;2750;49.050;9.250;2023-03-14T00:56:35;97118.28;;;12.54;99.00
5455;BME280;2750;49.050;9.250;2023-03-14T01:01:38;97126.34;;;12.51;98.97
5455;BME280;2750;49.050;9.250;2023-03-14T01:06:40;97130.84;;;12.49;99.87
5455;BME280;2750;49.050;9.250;2023-03-14T01:11:43;97129.84;;;12.61;98.96
5455;BME280;2750;49.050;9.250;2023-03-14T01:16:46;97133.34;;;12.71;98.35
5455;BME280;2750;49.050;9.250;2023-03-14T01:21:48;97115.13;;;12.71;98.77
5455;BME280;2750;49.050;9.250;2023-03-14T01:26:51;97120.59;;;12.68;98.51
5455;BME280;2750;49.050;9.250;2023-03-14T01:31:52;97109.78;;;12.52;98.42
5455;BME280;2750;49.050;9.250;2023-03-14T01:36:54;97079.38;;;12.73;98.04
5455;BME280;2750;49.050;9.250;2023-03-14T01:41:56;97061.44;;;12.91;96.95
5455;BME280;2750;49.050;9.250;2023-03-14T01:46:59;97035.09;;;13.15;95.46
5455;BME280;2750;49.050;9.250;2023-03-14T01:52:02;97015.53;;;12.90;96.32
5455;BME280;2750;49.050;9.250;2023-03-14T01:57:11;97007.78;;;13.09;95.13
5455;BME280;2750;49.050;9.250;2023-03-14T02:02:15;96992.94;;;12.70;95.75
5455;BME280;2750;49.050;9.250;2023-03-14T02:07:19;97001.84;;;12.67;96.30
5455;BME280;2750;49.050;9.250;2023-03-14T02:12:23;97000.19;;;12.66;96.15
5455;BME280;2750;49.050;9.250;2023-03-14T02:17:25;97000.53;;;12.52;96.72
5455;BME280;2750;49.050;9.250;2023-03-14T02:22:26;97003.16;;;12.20;97.80
5455;BME280;2750;49.050;9.250;2023-03-14T02:27:29;96998.31;;;12.48;96.52
5455;BME280;2750;49.050;9.250;2023-03-14T02:32:33;96994.19;;;12.45;96.64
5455;BME280;2750;49.050;9.250;2023-03-14T02:37:38;96980.38;;;12.54;95.67
5455;BME280;2750;49.050;9.250;2023-03-14T02:42:43;96962.59;;;12.29;96.57
5455;BME280;2750;49.050;9.250;2023-03-14T02:47:49;96967.03;;;12.38;95.06
5455;BME280;2750;49.050;9.250;2023-03-14T02:52:53;96945.59;;;12.25;94.44
5455;BME280;2750;49.050;9.250;2023-03-14T02:57:56;96945.72;;;12.44;93.75
5455;BME280;2750;49.050;9.250;2023-03-14T03:02:58;96950.91;;;12.44;93.66
5455;BME280;2750;49.050;9.250;2023-03-14T03:07:59;96939.75;;;12.12;93.48
5455;BME280;2750;49.050;9.250;2023-03-14T03:13:02;96934.94;;;12.28;92.58
5455;BME280;2750;49.050;9.250;2023-03-14T03:18:04;96944.47;;;12.18;92.95
5455;BME280;2750;49.050;9.250;2023-03-14T03:23:05;96922.00;;;12.17;93.27
5455;BME280;2750;49.050;9.250;2023-03-14T03:28:08;96917.78;;;12.46;92.15
5455;BME280;2750;49.050;9.250;2023-03-14T03:33:10;96902.16;;;11.95;93.38
5455;BME280;2750;49.050;9.250;2023-03-14T03:38:12;96904.13;;;12.03;93.50
5455;BME280;2750;49.050;9.250;2023-03-14T03:43:15;96897.78;;;11.95;93.20
5455;BME280;2750;49.050;9.250;2023-03-14T03:48:18;96897.41;;;11.79;93.06
5455;BME280;2750;49.050;9.250;2023-03-14T03:53:20;96897.78;;;11.95;92.91
5455;BME280;2750;49.050;9.250;2023-03-14T03:58:23;96886.75;;;12.03;91.83
5455;BME280;2750;49.050;9.250;2023-03-14T04:03:24;96902.72;;;11.78;92.95
5455;BME280;2750;49.050;9.250;2023-03-14T04:08:26;96898.94;;;12.03;92.33
5455;BME280;2750;49.050;9.250;2023-03-14T04:13:29;96900.22;;;12.38;90.30
5455;BME280;2750;49.050;9.250;2023-03-14T04:18:31;96892.56;;;12.37;89.87
5455;BME280;2750;49.050;9.250;2023-03-14T04:23:32;96898.44;;;12.39;89.80
5455;BME280;2750;49.050;9.250;2023-03-14T04:28:35;96895.66;;;12.31;90.53
5455;BME280;2750;49.050;9.250;2023-03-14T04:33:37;96890.91;;;12.36;89.27
5455;BME280;2750;49.050;9.250;2023-03-14T04:38:39;96902.69;;;12.40;89.18
5455;BME280;2750;49.050;9.250;2023-03-14T04:43:42;96890.72;;;12.58;88.41
5455;BME280;2750;49.050;9.250;2023-03-14T04:48:43;96887.13;;;12.50;87.95
5455;BME280;2750;49.050;9.250;2023-03-14T04:53:45;96878.44;;;12.30;88.34
5455;BME280;2750;49.050;9.250;2023-03-14T04:58:48;96870.81;;;12.38;88.18
5455;BME280;2750;49.050;9.250;2023-03-14T05:03:50;96853.47;;;12.18;87.77
5455;BME280;2750;49.050;9.250;2023-03-14T05:08:51;96850.97;;;12.16;88.48
5455;BME280;2750;49.050;9.250;2023-03-14T05:13:54;96845.31;;;12.11;88.19
5455;BME280;2750;49.050;9.250;2023-03-14T05:18:56;96848.56;;;11.62;89.38
5455;BME280;2750;49.050;9.250;2023-03-14T05:23:57;96830.16;;;11.86;88.48
5455;BME280;2750;49.050;9.250;2023-03-14T05:29:00;96840.25;;;11.79;88.24
5455;BME280;2750;49.050;9.250;2023-03-14T05:34:02;96838.41;;;11.91;87.76
5455;BME280;2750;49.050;9.250;2023-03-14T05:39:03;96835.53;;;12.15;86.53
5455;BME280;2750;49.050;9.250;2023-03-14T05:44:06;96832.28;;;12.22;86.12
5455;BME280;2750;49.050;9.250;2023-03-14T05:49:08;96837.97;;;12.46;85.49
5455;BME280;2750;49.050;9.250;2023-03-14T05:54:09;96829.59;;;12.33;85.61
5455;BME280;2750;49.050;9.250;2023-03-14T05:59:12;96834.03;;;12.62;85.37
5455;BME280;2750;49.050;9.250;2023-03-14T06:04:15;96830.53;;;12.82;84.46
5455;BME280;2750;49.050;9.250;2023-03-14T06:09:16;96829.34;;;13.05;83.30
5455;BME280;2750;49.050;9.250;2023-03-14T06:14:21;96824.91;;;12.77;83.97
5455;BME280;2750;49.050;9.250;2023-03-14T06:19:22;96819.75;;;13.06;84.40
5455;BME280;2750;49.050;9.250;2023-03-14T06:24:24;96823.75;;;12.51;85.34
5455;BME280;2750;49.050;9.250;2023-03-14T06:29:27;96820.41;;;12.79;84.48
5455;BME280;2750;49.050;9.250;2023-03-14T06:34:29;96805.19;;;12.74;84.50
5455;BME280;2750;49.050;9.250;2023-03-14T06:39:30;96805.25;;;12.54;84.98
5455;BME280;2750;49.050;9.250;2023-03-14T06:44:33;96799.03;;;12.26;86.06
5455;BME280;2750;49.050;9.250;2023-03-14T06:49:35;96792.44;;;12.81;83.97
5455;BME280;2750;49.050;9.250;2023-03-14T06:54:36;96789.72;;;12.82;82.86
5455;BME280;2750;49.050;9.250;2023-03-14T06:59:39;96784.09;;;12.68;84.27
5455;BME280;2750;49.050;9.250;2023-03-14T07:04:41;96789.56;;;13.89;81.29
5455;BME280;2750;49.050;9.250;2023-03-14T07:09:42;96780.59;;;15.28;76.51
5455;BME280;2750;49.050;9.250;2023-03-14T07:14:45;96799.13;;;14.45;77.30
5455;BME280;2750;49.050;9.250;2023-03-14T07:19:47;96804.69;;;14.60;77.86
5455;BME280;2750;49.050;9.250;2023-03-14T07:24:48;96796.53;;;13.99;80.42
5455;BME280;2750;49.050;9.250;2023-03-14T07:29:51;96803.00;;;13.85;80.75
5455;BME280;2750;49.050;9.250;2023-03-14T07:34:53;96795.19;;;13.95;79.41
5455;BME280;2750;49.050;9.250;2023-03-14T07:39:54;96800.81;;;14.27;79.92
5455;BME280;2750;49.050;9.250;2023-03-14T07:44:57;96795.50;;;14.19;80.43
5455;BME280;2750;49.050;9.250;2023-03-14T07:49:59;96793.81;;;13.81;80.22
5455;BME280;2750;49.050;9.250;2023-03-14T07:55:00;96793.00;;;14.27;78.75
5455;BME280;2750;49.050;9.250;2023-03-14T08:00:04;96791.88;;;14.66;77.72
5455;BME280;2750;49.050;9.250;2023-03-14T08:05:07;96776.03;;;14.50;77.78
5455;BME280;2750;49.050;9.250;2023-03-14T08:10:10;96776.22;;;14.66;78.02
5455;BME280;2750;49.050;9.250;2023-03-14T08:15:14;96779.78;;;15.71;75.14
5455;BME280;2750;49.050;9.250;2023-03-14T08:20:16;96783.03;;;17.01;71.19
5455;BME280;2750;49.050;9.250;2023-03-14T08:25:18;96786.03;;;16.64;71.17
5455;BME280;2750;49.050;9.250;2023-03-14T08:30:21;96785.72;;;17.57;70.26
5455;BME280;2750;49.050;9.250;2023-03-14T08:35:23;96785.69;;;16.33;71.31
5455;BME280;2750;49.050;9.250;2023-03-14T08:40:25;96783.50;;;16.12;72.56
5455;BME280;2750;49.050;9.250;2023-03-14T08:45:28;96776.16;;;17.40;68.38
5455;BME280;2750;49.050;9.250;2023-03-14T08:50:29;96784.44;;;16.79;67.98
5455;BME280;2750;49.050;9.250;2023-03-14T08:55:31;96788.75;;;16.54;69.21
5455;BME280;2750;49.050;9.250;2023-03-14T09:00:34;96801.13;;;15.85;72.59
5455;BME280;2750;49.050;9.250;2023-03-14T09:05:36;96792.75;;;15.02;73.47
5455;BME280;2750;49.050;9.250;2023-03-14T09:10:37;96830.63;;;14.61;75.51
5455;BME280;2750;49.050;9.250;2023-03-14T09:15:40;96828.31;;;14.21;78.96
5455;BME280;2750;49.050;9.250;2023-03-14T09:20:43;96864.53;;;14.24;80.72
5455;BME280;2750;49.050;9.250;2023-03-14T09:25:44;96843.22;;;13.82;85.16
5455;BME280;2750;49.050;9.250;2023-03-14T09:30:47;96882.72;;;13.68;88.92
5455;BME280;2750;49.050;9.250;2023-03-14T09:35:49;96871.78;;;13.74;86.99
5455;BME280;2750;49.050;9.250;2023-03-14T09:40:51;96880.25;;;13.96;87.37
5455;BME280;2750;49.050;9.250;2023-03-14T09:45:56;96879.28;;;14.06;86.42
5455;BME280;2750;49.050;9.250;2023-03-14T09:51:01;96881.75;;;13.98;87.27
5455;BME280;2750;49.050;9.250;2023-03-14T09:56:11;96889.44;;;13.80;89.55
5455;BME280;2750;49.050;9.250;2023-03-14T10:01:17;96887.94;;;13.97;90.12
5455;BME280;2750;49.050;9.250;2023-03-14T10:06:21;96879.56;;;14.59;87.94
5455;BME280;2750;49.050;9.250;2023-03-14T10:11:24;96867.97;;;14.71;85.30
5455;BME280;2750;49.050;9.250;2023-03-14T10:16:30;96867.06;;;15.08;84.60
5455;BME280;2750;49.050;9.250;2023-03-14T10:21:37;96862.69;;;16.22;81.40
5455;BME280;2750;49.050;9.250;2023-03-14T10:26:40;96859.19;;;16.14;79.28
5455;BME280;2750;49.050;9.250;2023-03-14T10:31:51;96838.94;;;16.42;75.94
5455;BME280;2750;49.050;9.250;2023-03-14T10:36:55;96850.75;;;15.41;76.80
5455;BME280;2750;49.050;9.250;2023-03-14T10:42:04;96846.09;;;16.06;75.91
5455;BME280;2750;49.050;9.250;2023-03-14T10:47:17;96830.84;;;14.95;78.10
5455;BME280;2750;49.050;9.250;2023-03-14T10:52:21;96865.19;;;14.73;82.36
5455;BME280;2750;49.050;9.250;2023-03-14T10:57:24;96878.63;;;13.85;83.17
5455;BME280;2750;49.050;9.250;2023-03-14T11:02:41;96882.78;;;13.00;88.33
5455;BME280;2750;49.050;9.250;2023-03-14T11:07:46;96890.44;;;13.41;90.01
5455;BME280;2750;49.050;9.250;2023-03-14T11:13:07;96901.81;;;13.59;88.96
5455;BME280;2750;49.050;9.250;2023-03-14T11:23:58;96901.41;;;13.54;89.95
5455;BME280;2750;49.050;9.250;2023-03-14T11:29:14;96901.94;;;13.96;88.53
5455;BME280;2750;49.050;9.250;2023-03-14T11:34:25;96906.06;;;13.79;87.43
5455;BME280;2750;49.050;9.250;2023-03-14T11:39:38;96904.41;;;13.69;87.88
5455;BME280;2750;49.050;9.250;2023-03-14T11:44:40;96890.56;;;13.39;87.87
5455;BME280;2750;49.050;9.250;2023-03-14T11:49:48;96912.50;;;12.87;90.47
5455;BME280;2750;49.050;9.250;2023-03-14T11:54:56;96902.59;;;12.81;90.11
5455;BME280;2750;49.050;9.250;2023-03-14T12:00:02;96925.06;;;12.82;90.36
5455;BME280;2750;49.050;9.250;2023-03-14T12:05:29;96943.41;;;12.81;89.27
5455;BME280;2750;49.050;9.250;2023-03-14T12:10:38;96947.00;;;12.80;90.06
5455;BME280;2750;49.050;9.250;2023-03-14T12:15:46;96933.56;;;12.54;89.85
5455;BME280;2750;49.050;9.250;2023-03-14T12:20:54;97004.41;;;12.37;90.59
5455;BME280;2750;49.050;9.250;2023-03-14T12:26:13;96992.47;;;12.14;92.29
5455;BME280;2750;49.050;9.250;2023-03-14T12:31:35;97015.97;;;12.12;91.86
5455;BME280;2750;49.050;9.250;2023-03-14T12:37:01;97033.72;;;11.64;92.07
5455;BME280;2750;49.050;9.250;2023-03-14T12:42:11;97053.47;;;11.11;91.25
5455;BME280;2750;49.050;9.250;2023-03-14T12:53:02;97110.72;;;10.40;90.51
5455;BME280;2750;49.050;9.250;2023-03-14T12:58:13;97120.13;;;10.30;89.42
5455;BME280;2750;49.050;9.250;2023-03-14T13:03:19;97146.16;;;10.28;87.84
5455;BME280;2750;49.050;9.250;2023-03-14T13:08:39;97151.88;;;10.21;86.49
5455;BME280;2750;49.050;9.250;2023-03-14T13:13:45;97185.00;;;10.41;86.01
5455;BME280;2750;49.050;9.250;2023-03-14T13:18:49;97184.81;;;10.31;82.43
5455;BME280;2750;49.050;9.250;2023-03-14T13:23:57;97207.78;;;10.72;80.54
5455;BME280;2750;49.050;9.250;2023-03-14T13:29:08;97206.16;;;10.82;78.28
5455;BME280;2750;49.050;9.250;2023-03-14T13:34:10;97248.34;;;11.43;76.95
5455;BME280;2750;49.050;9.250;2023-03-14T13:39:16;97250.25;;;11.06;74.01
5455;BME280;2750;49.050;9.250;2023-03-14T13:44:24;97270.28;;;11.04;70.35
5455;BME280;2750;49.050;9.250;2023-03-14T13:49:27;97280.41;;;11.31;67.08
5455;BME280;2750;49.050;9.250;2023-03-14T13:54:31;97314.69;;;11.47;66.97
5455;BME280;2750;49.050;9.250;2023-03-14T13:59:35;97321.31;;;11.16;64.32
5455;BME280;2750;49.050;9.250;2023-03-14T14:04:37;97347.69;;;10.86;63.21
5455;BME280;2750;49.050;9.250;2023-03-14T14:09:40;97356.47;;;10.96;63.90
5455;BME280;2750;49.050;9.250;2023-03-14T14:14:48;97386.03;;;11.07;63.49
5455;BME280;2750;49.050;9.250;2023-03-14T14:19:51;97388.69;;;11.18;62.39
5455;BME280;2750;49.050;9.250;2023-03-14T14:24:53;97402.19;;;10.86;62.51
5455;BME280;2750;49.050;9.250;2023-03-14T14:30:02;97424.69;;;10.98;63.44
5455;BME280;2750;49.050;9.250;2023-03-14T14:35:04;97438.22;;;10.66;62.65
5455;BME280;2750;49.050;9.250;2023-03-14T14:40:10;97463.34;;;10.40;62.99
5455;BME280;2750;49.050;9.250;2023-03-14T14:45:19;97479.41;;;10.70;63.00
5455;BME280;2750;49.050;9.250;2023-03-14T14:50:28;97493.84;;;10.49;63.16
5455;BME280;2750;49.050;9.250;2023-03-14T14:55:33;97511.56;;;10.55;63.00
5455;BME280;2750;49.050;9.250;2023-03-14T15:00:39;97509.63;;;10.71;61.38
5455;BME280;2750;49.050;9.250;2023-03-14T15:05:42;97507.75;;;10.86;60.80
5455;BME280;2750;49.050;9.250;2023-03-14T15:10:44;97515.81;;;11.07;60.99
5455;BME280;2750;49.050;9.250;2023-03-14T15:15:47;97525.47;;;12.14;59.07
5455;BME280;2750;49.050;9.250;2023-03-14T15:20:49;97543.28;;;12.42;57.80
5455;BME280;2750;49.050;9.250;2023-03-14T15:25:50;97544.16;;;13.55;56.98
5455;BME280;2750;49.050;9.250;2023-03-14T15:30:55;97551.91;;;12.42;57.55
5455;BME280;2750;49.050;9.250;2023-03-14T15:35:56;97522.38;;;12.09;58.15
5455;BME280;2750;49.050;9.250;2023-03-14T15:40:59;97537.59;;;12.02;58.30
5455;BME280;2750;49.050;9.250;2023-03-14T15:46:02;97555.97;;;12.46;58.48
5455;BME280;2750;49.050;9.250;2023-03-14T15:51:06;97558.53;;;12.12;57.95
5455;BME280;2750;49.050;9.250;2023-03-14T15:56:11;97543.72;;;11.77;58.96
5455;BME280;2750;49.050;9.250;2023-03-14T16:01:16;97551.53;;;11.65;59.08
5455;BME280;2750;49.050;9.250;2023-03-14T16:06:17;97565.75;;;11.10;60.42
5455;BME280;2750;49.050;9.250;2023-03-14T16:11:19;97574.69;;;10.93;61.63
5455;BME280;2750;49.050;9.250;2023-03-14T16:16:22;97589.41;;;10.93;61.91
5455;BME280;2750;49.050;9.250;2023-03-14T16:21:24;97589.94;;;10.98;62.42
5455;BME280;2750;49.050;9.250;2023-03-14T16:26:25;97596.59;;;10.77;62.96
5455;BME280;2750;49.050;9.250;2023-03-14T16:31:28;97609.22;;;10.02;64.86
5455;BME280;2750;49.050;9.250;2023-03-14T16:36:29;97606.69;;;10.01;65.49
5455;BME280;2750;49.050;9.250;2023-03-14T16:41:31;97621.03;;;10.06;67.08
5455;BME280;2750;49.050;9.250;2023-03-14T16:46:35;97638.78;;;10.27;66.36
5455;BME280;2750;49.050;9.250;2023-03-14T16:51:37;97656.13;;;10.39;66.96
5455;BME280;2750;49.050;9.250;2023-03-14T16:56:39;97663.75;;;10.42;67.43
5455;BME280;2750;49.050;9.250;2023-03-14T17:01:42;97663.31;;;10.21;68.21
5455;BME280;2750;49.050;9.250;2023-03-14T17:06:44;97679.88;;;10.04;68.03
5455;BME280;2750;49.050;9.250;2023-03-14T17:11:46;97676.97;;;9.82;68.48
5455;BME280;2750;49.050;9.250;2023-03-14T17:16:49;97704.56;;;9.69;67.88
5455;BME280;2750;49.050;9.250;2023-03-14T17:21:51;97683.19;;;9.80;68.12
5455;BME280;2750;49.050;9.250;2023-03-14T17:26:52;97725.81;;;9.60;69.25
5455;BME280;2750;49.050;9.250;2023-03-14T17:31:55;97731.38;;;9.54;71.07
5455;BME280;2750;49.050;9.250;2023-03-14T17:36:56;97719.34;;;9.39;71.05
5455;BME280;2750;49.050;9.250;2023-03-14T17:41:58;97752.75;;;9.13;74.55
5455;BME280;2750;49.050;9.250;2023-03-14T17:47:01;97774.31;;;9.28;75.34
5455;BME280;2750;49.050;9.250;2023-03-14T17:52:03;97766.78;;;9.09;76.46
5455;BME280;2750;49.050;9.250;2023-03-14T17:57:07;97770.44;;;9.05;78.55
5455;BME280;2750;49.050;9.250;2023-03-14T18:02:10;97789.41;;;9.06;79.91
5455;BME280;2750;49.050;9.250;2023-03-14T18:07:13;97809.94;;;8.93;79.74
5455;BME280;2750;49.050;9.250;2023-03-14T18:12:14;97808.19;;;8.94;80.37
5455;BME280;2750;49.050;9.250;2023-03-14T18:17:17;97820.41;;;8.92;82.63
5455;BME280;2750;49.050;9.250;2023-03-14T18:22:19;97811.22;;;8.55;83.40
5455;BME280;2750;49.050;9.250;2023-03-14T18:27:20;97824.00;;;8.25;85.64
5455;BME280;2750;49.050;9.250;2023-03-14T18:32:23;97820.56;;;8.42;84.37
5455;BME280;2750;49.050;9.250;2023-03-14T18:37:25;97845.09;;;8.50;84.35
5455;BME280;2750;49.050;9.250;2023-03-14T18:42:26;97855.41;;;8.17;85.00
5455;BME280;2750;49.050;9.250;2023-03-14T18:47:29;97861.97;;;8.07;85.23
5455;BME280;2750;49.050;9.250;2023-03-14T18:52:35;97874.97;;;8.06;86.23
5455;BME280;2750;49.050;9.250;2023-03-14T18:57:36;97895.69;;;8.22;85.57
5455;BME280;2750;49.050;9.250;2023-03-14T19:02:39;97904.88;;;8.10;85.95
5455;BME280;2750;49.050;9.250;2023-03-14T19:07:41;97907.97;;;8.16;84.30
5455;BME280;2750;49.050;9.250;2023-03-14T19:12:42;97897.53;;;8.20;83.83
5455;BME280;2750;49.050;9.250;2023-03-14T19:17:45;97930.94;;;8.05;84.36
5455;BME280;2750;49.050;9.250;2023-03-14T19:22:47;97933.53;;;8.23;84.02
5455;BME280;2750;49.050;9.250;2023-03-14T19:27:49;97941.19;;;8.24;83.58
5455;BME280;2750;49.050;9.250;2023-03-14T19:32:52;97960.03;;;8.26;82.51
5455;BME280;2750;49.050;9.250;2023-03-14T19:37:53;97967.97;;;8.23;82.56
5455;BME280;2750;49.050;9.250;2023-03-14T19:42:55;97976.47;;;8.08;83.30
5455;BME280;2750;49.050;9.250;2023-03-14T19:47:58;97993.63;;;8.26;82.39
5455;BME280;2750;49.050;9.250;2023-03-14T19:53:00;98004.03;;;8.25;82.38
5455;BME280;2750;49.050;9.250;2023-03-14T19:58:01;98013.28;;;8.30;81.62
5455;BME280;2750;49.050;9.250;2023-03-14T20:03:04;98020.59;;;8.03;82.94
5455;BME280;2750;49.050;9.250;2023-03-14T20:08:06;98044.22;;;7.60;86.54
5455;BME280;2750;49.050;9.250;2023-03-14T20:13:08;98040.69;;;6.47;90.74
5455;BME280;2750;49.050;9.250;2023-03-14T20:18:11;98043.06;;;6.52;90.53
5455;BME280;2750;49.050;9.250;2023-03-14T20:23:13;98052.50;;;6.92;89.69
5455;BME280;2750;49.050;9.250;2023-03-14T20:28:14;98062.09;;;6.88;88.76
5455;BME280;2750;49.050;9.250;2023-03-14T20:33:17;98072.28;;;6.91;87.55
5455;BME280;2750;49.050;9.250;2023-03-14T20:38:19;98067.44;;;7.22;86.45
5455;BME280;2750;49.050;9.250;2023-03-14T20:43:20;98065.88;;;7.93;84.95
5455;BME280;2750;49.050;9.250;2023-03-14T20:48:25;98061.13;;;7.84;84.95
5455;BME280;2750;49.050;9.250;2023-03-14T20:53:27;98074.13;;;8.70;82.85
5455;BME280;2750;49.050;9.250;2023-03-14T20:58:28;98064.53;;;8.21;84.72
5455;BME280;2750;49.050;9.250;2023-03-14T21:03:31;98074.25;;;7.80;87.51
5455;BME280;2750;49.050;9.250;2023-03-14T21:08:33;98073.84;;;7.33;90.26
5455;BME280;2750;49.050;9.250;2023-03-14T21:13:35;98075.88;;;7.07;91.98
5455;BME280;2750;49.050;9.250;2023-03-14T21:18:37;98085.06;;;6.74;92.56
5455;BME280;2750;49.050;9.250;2023-03-14T21:23:39;98087.38;;;7.00;92.50
5455;BME280;2750;49.050;9.250;2023-03-14T21:28:40;98079.00;;;7.14;91.77
5455;BME280;2750;49.050;9.250;2023-03-14T21:33:45;98079.84;;;7.14;91.91
5455;BME280;2750;49.050;9.250;2023-03-14T21:38:48;98081.75;;;7.30;91.53
5455;BME280;2750;49.050;9.250;2023-03-14T21:43:49;98077.97;;;7.37;91.55
5455;BME280;2750;49.050;9.250;2023-03-14T21:48:52;98089.28;;;7.53;91.50
5455;BME280;2750;49.050;9.250;2023-03-14T21:53:54;98097.72;;;7.75;89.94
5455;BME280;2750;49.050;9.250;2023-03-14T21:58:56;98113.69;;;7.83;89.38
5455;BME280;2750;49.050;9.250;2023-03-14T22:04:00;98134.72;;;6.57;91.69
5455;BME280;2750;49.050;9.250;2023-03-14T22:09:02;98147.91;;;6.08;94.92
5455;BME280;2750;49.050;9.250;2023-03-14T22:14:03;98164.22;;;5.39;97.81
5455;BME280;2750;49.050;9.250;2023-03-14T22:19:06;98170.09;;;4.94;100.00
5455;BME280;2750;49.050;9.250;2023-03-14T22:24:08;98161.41;;;4.97;100.00
5455;BME280;2750;49.050;9.250;2023-03-14T22:29:09;98144.91;;;4.53;100.00
5455;BME280;2750;49.050;9.250;2023-03-14T22:34:13;98168.84;;;4.28;100.00
5455;BME280;2750;49.050;9.250;2023-03-14T22:39:14;98210.53;;;4.07;100.00
5455;BME280;2750;49.050;9.250;2023-03-14T22:44:17;98244.69;;;3.51;100.00
5455;BME280;2750;49.050;9.250;2023-03-14T22:49:19;98271.69;;;3.31;100.00
5455;BME280;2750;49.050;9.250;2023-03-14T22:54:21;98286.53;;;3.51;100.00
5455;BME280;2750;49.050;9.250;2023-03-14T22:59:23;98300.34;;;3.46;100.00
5455;BME280;2750;49.050;9.250;2023-03-14T23:04:27;98299.22;;;3.23;100.00
5455;BME280;2750;49.050;9.250;2023-03-14T23:09:29;98333.38;;;3.24;100.00
5455;BME280;2750;49.050;9.250;2023-03-14T23:14:31;98322.34;;;3.54;100.00
5455;BME280;2750;49.050;9.250;2023-03-14T23:19:34;98337.84;;;3.50;100.00
5455;BME280;2750;49.050;9.250;2023-03-14T23:24:38;98351.88;;;3.36;100.00
5455;BME280;2750;49.050;9.250;2023-03-14T23:29:40;98367.69;;;3.18;100.00
5455;BME280;2750;49.050;9.250;2023-03-14T23:34:43;98359.13;;;3.19;100.00
5455;BME280;2750;49.050;9.250;2023-03-14T23:39:45;98374.19;;;3.67;100.00
5455;BME280;2750;49.050;9.250;2023-03-14T23:44:46;98374.78;;;4.07;100.00
5455;BME280;2750;49.050;9.250;2023-03-14T23:49:49;98392.94;;;4.32;99.32
5455;BME280;2750;49.050;9.250;2023-03-14T23:54:51;98402.88;;;4.44;98.25
5455;BME280;2750;49.050;9.250;2023-03-14T23:59:52;98422.19;;;4.87;97.67
